メインページ
METAR-TAF:

METAR-TAF

空港 :

Mount Pleasant Municipal Airport

Mount Pleasant, ミシガン州, アメリカ合衆国

緯度: 43-37N, 経度: 084-44W, 海抜: 230m

現時点の気象観測

当レポートは26分前の18:17(UTC)に作成
西/南西の風 10kt、最大15ktの突風を伴う
気温 34°C
湿度 44%
気圧 1010 hPa
視程: 16.1km
高度8500ftの雲は散在している

METAR: KMOP 191817Z AUTO 25010G15KT 10SM SCT085 34/20 A2982 RMK AO2 T03360204

時間: 14:43 (18:43 UTC)


TAF: 見つかりません

4,000以上の空港の気象観測と天気予報(METAR報とTAF報)

利用可能な観測所は地図上に黄色い丸と赤い丸で示す。

丸の上にカーソルを重ねると観測所名を参照できる。

次にクリックすると気象観測と天気予報を参照できる。

マップの切り替え:黒色「×」印の緑ボタンをクリックして拡大、「-」印の緑ボタンをクリックして縮小、緑色の三角印をクリックして隣りの地図に切り替え


METAR-TAF: